sensor_id;sensor_type;location;lat;lon;timestamp;P1;durP1;ratioP1;P2;durP2;ratioP2
31514;SDS011;40526;52.088;17.020;2024-01-30T00:02:03;27.25;;;13.90;;
31514;SDS011;40526;52.088;17.020;2024-01-30T00:07:07;27.00;;;13.80;;
31514;SDS011;40526;52.088;17.020;2024-01-30T00:12:09;31.50;;;13.23;;
31514;SDS011;40526;52.088;17.020;2024-01-30T00:17:11;29.10;;;13.80;;
31514;SDS011;40526;52.088;17.020;2024-01-30T00:22:14;26.80;;;14.85;;
31514;SDS011;40526;52.088;17.020;2024-01-30T00:27:16;32.30;;;15.38;;
31514;SDS011;40526;52.088;17.020;2024-01-30T00:32:19;31.13;;;13.93;;
31514;SDS011;40526;52.088;17.020;2024-01-30T00:37:24;32.22;;;15.25;;
31514;SDS011;40526;52.088;17.020;2024-01-30T00:42:26;26.42;;;14.98;;
31514;SDS011;40526;52.088;17.020;2024-01-30T00:47:28;30.35;;;13.55;;
31514;SDS011;40526;52.088;17.020;2024-01-30T00:52:34;33.10;;;13.63;;
31514;SDS011;40526;52.088;17.020;2024-01-30T00:57:36;24.90;;;12.43;;
31514;SDS011;40526;52.088;17.020;2024-01-30T01:02:39;30.08;;;13.70;;
31514;SDS011;40526;52.088;17.020;2024-01-30T01:07:42;26.45;;;13.13;;
31514;SDS011;40526;52.088;17.020;2024-01-30T01:12:45;23.50;;;13.15;;
31514;SDS011;40526;52.088;17.020;2024-01-30T01:17:47;27.98;;;12.90;;
31514;SDS011;40526;52.088;17.020;2024-01-30T01:22:51;26.90;;;13.07;;
31514;SDS011;40526;52.088;17.020;2024-01-30T01:27:54;29.42;;;13.13;;
31514;SDS011;40526;52.088;17.020;2024-01-30T01:32:56;28.30;;;13.40;;
31514;SDS011;40526;52.088;17.020;2024-01-30T01:38:02;27.42;;;12.68;;
31514;SDS011;40526;52.088;17.020;2024-01-30T01:43:05;31.27;;;15.20;;
31514;SDS011;40526;52.088;17.020;2024-01-30T01:48:07;29.67;;;13.13;;
31514;SDS011;40526;52.088;17.020;2024-01-30T01:53:12;32.97;;;14.73;;
31514;SDS011;40526;52.088;17.020;2024-01-30T01:58:15;24.17;;;12.43;;
31514;SDS011;40526;52.088;17.020;2024-01-30T02:03:17;29.67;;;13.43;;
31514;SDS011;40526;52.088;17.020;2024-01-30T02:08:23;27.33;;;13.18;;
31514;SDS011;40526;52.088;17.020;2024-01-30T02:13:25;30.15;;;12.80;;
31514;SDS011;40526;52.088;17.020;2024-01-30T02:18:27;28.25;;;14.98;;
31514;SDS011;40526;52.088;17.020;2024-01-30T02:23:31;27.00;;;13.55;;
31514;SDS011;40526;52.088;17.020;2024-01-30T02:28:34;26.67;;;13.32;;
31514;SDS011;40526;52.088;17.020;2024-01-30T02:33:37;27.08;;;14.73;;
31514;SDS011;40526;52.088;17.020;2024-01-30T02:38:40;27.23;;;13.05;;
31514;SDS011;40526;52.088;17.020;2024-01-30T02:43:42;24.98;;;12.40;;
31514;SDS011;40526;52.088;17.020;2024-01-30T02:48:45;29.08;;;13.95;;
31514;SDS011;40526;52.088;17.020;2024-01-30T02:53:48;28.23;;;12.50;;
31514;SDS011;40526;52.088;17.020;2024-01-30T02:58:50;30.42;;;11.45;;
31514;SDS011;40526;52.088;17.020;2024-01-30T03:03:52;30.88;;;13.52;;
31514;SDS011;40526;52.088;17.020;2024-01-30T03:08:56;25.33;;;12.10;;
31514;SDS011;40526;52.088;17.020;2024-01-30T03:13:58;23.02;;;12.00;;
31514;SDS011;40526;52.088;17.020;2024-01-30T03:19:00;23.92;;;12.02;;
31514;SDS011;40526;52.088;17.020;2024-01-30T03:24:05;25.83;;;10.80;;
31514;SDS011;40526;52.088;17.020;2024-01-30T03:29:07;26.00;;;11.68;;
31514;SDS011;40526;52.088;17.020;2024-01-30T03:34:09;28.60;;;12.82;;
31514;SDS011;40526;52.088;17.020;2024-01-30T03:39:13;18.90;;;10.95;;
31514;SDS011;40526;52.088;17.020;2024-01-30T03:44:15;24.33;;;11.85;;
31514;SDS011;40526;52.088;17.020;2024-01-30T03:49:17;21.75;;;11.02;;
31514;SDS011;40526;52.088;17.020;2024-01-30T03:54:21;21.30;;;12.27;;
31514;SDS011;40526;52.088;17.020;2024-01-30T03:59:23;23.17;;;10.68;;
31514;SDS011;40526;52.088;17.020;2024-01-30T04:04:25;24.50;;;11.55;;
31514;SDS011;40526;52.088;17.020;2024-01-30T04:09:28;21.20;;;12.07;;
31514;SDS011;40526;52.088;17.020;2024-01-30T04:14:31;24.45;;;13.23;;
31514;SDS011;40526;52.088;17.020;2024-01-30T04:19:36;34.25;;;14.85;;
31514;SDS011;40526;52.088;17.020;2024-01-30T04:24:40;23.27;;;12.88;;
31514;SDS011;40526;52.088;17.020;2024-01-30T04:29:42;28.42;;;13.10;;
31514;SDS011;40526;52.088;17.020;2024-01-30T04:34:44;24.00;;;12.13;;
31514;SDS011;40526;52.088;17.020;2024-01-30T04:39:47;25.55;;;13.10;;
31514;SDS011;40526;52.088;17.020;2024-01-30T04:44:49;18.27;;;11.52;;
31514;SDS011;40526;52.088;17.020;2024-01-30T04:49:52;22.00;;;13.35;;
31514;SDS011;40526;52.088;17.020;2024-01-30T04:54:55;20.95;;;11.63;;
31514;SDS011;40526;52.088;17.020;2024-01-30T04:59:57;23.20;;;11.45;;
31514;SDS011;40526;52.088;17.020;2024-01-30T05:04:59;24.92;;;11.35;;
31514;SDS011;40526;52.088;17.020;2024-01-30T05:10:04;18.67;;;10.68;;
31514;SDS011;40526;52.088;17.020;2024-01-30T05:15:07;23.00;;;10.98;;
31514;SDS011;40526;52.088;17.020;2024-01-30T05:20:10;18.75;;;10.77;;
31514;SDS011;40526;52.088;17.020;2024-01-30T05:25:15;18.73;;;10.85;;
31514;SDS011;40526;52.088;17.020;2024-01-30T05:30:16;21.77;;;11.63;;
31514;SDS011;40526;52.088;17.020;2024-01-30T05:35:19;23.55;;;11.45;;
31514;SDS011;40526;52.088;17.020;2024-01-30T05:40:23;21.38;;;11.25;;
31514;SDS011;40526;52.088;17.020;2024-01-30T05:45:25;17.25;;;10.35;;
31514;SDS011;40526;52.088;17.020;2024-01-30T05:50:28;23.42;;;11.35;;
31514;SDS011;40526;52.088;17.020;2024-01-30T05:55:33;31.45;;;13.57;;
31514;SDS011;40526;52.088;17.020;2024-01-30T06:00:35;31.30;;;14.18;;
31514;SDS011;40526;52.088;17.020;2024-01-30T06:05:38;33.25;;;15.73;;
31514;SDS011;40526;52.088;17.020;2024-01-30T06:10:41;29.92;;;15.32;;
31514;SDS011;40526;52.088;17.020;2024-01-30T06:15:43;133.02;;;61.42;;
31514;SDS011;40526;52.088;17.020;2024-01-30T06:20:45;49.25;;;23.48;;
31514;SDS011;40526;52.088;17.020;2024-01-30T06:25:49;35.22;;;19.40;;
31514;SDS011;40526;52.088;17.020;2024-01-30T06:30:50;41.33;;;18.85;;
31514;SDS011;40526;52.088;17.020;2024-01-30T06:35:53;26.17;;;14.02;;
31514;SDS011;40526;52.088;17.020;2024-01-30T06:40:56;25.15;;;12.85;;
31514;SDS011;40526;52.088;17.020;2024-01-30T06:45:58;21.25;;;10.77;;
31514;SDS011;40526;52.088;17.020;2024-01-30T06:51:00;28.38;;;13.35;;
31514;SDS011;40526;52.088;17.020;2024-01-30T06:56:04;26.98;;;12.48;;
31514;SDS011;40526;52.088;17.020;2024-01-30T07:01:07;20.15;;;10.68;;
31514;SDS011;40526;52.088;17.020;2024-01-30T07:06:10;22.58;;;10.38;;
31514;SDS011;40526;52.088;17.020;2024-01-30T07:11:19;20.63;;;10.68;;
31514;SDS011;40526;52.088;17.020;2024-01-30T07:16:22;23.90;;;10.55;;
31514;SDS011;40526;52.088;17.020;2024-01-30T07:21:24;18.83;;;9.57;;
31514;SDS011;40526;52.088;17.020;2024-01-30T07:26:30;14.80;;;8.82;;
31514;SDS011;40526;52.088;17.020;2024-01-30T07:31:32;14.55;;;9.93;;
31514;SDS011;40526;52.088;17.020;2024-01-30T07:36:34;19.35;;;10.82;;
31514;SDS011;40526;52.088;17.020;2024-01-30T07:41:37;20.10;;;10.63;;
31514;SDS011;40526;52.088;17.020;2024-01-30T07:46:39;19.48;;;10.95;;
31514;SDS011;40526;52.088;17.020;2024-01-30T07:51:42;18.48;;;10.98;;
31514;SDS011;40526;52.088;17.020;2024-01-30T07:56:46;21.23;;;11.10;;
31514;SDS011;40526;52.088;17.020;2024-01-30T08:01:48;21.42;;;11.60;;
31514;SDS011;40526;52.088;17.020;2024-01-30T08:06:50;18.98;;;11.52;;
31514;SDS011;40526;52.088;17.020;2024-01-30T08:11:54;19.88;;;12.23;;
31514;SDS011;40526;52.088;17.020;2024-01-30T08:16:56;23.58;;;12.15;;
31514;SDS011;40526;52.088;17.020;2024-01-30T08:21:58;20.70;;;10.70;;
31514;SDS011;40526;52.088;17.020;2024-01-30T08:27:01;21.15;;;11.88;;
31514;SDS011;40526;52.088;17.020;2024-01-30T08:32:05;19.10;;;10.13;;
31514;SDS011;40526;52.088;17.020;2024-01-30T08:37:08;20.67;;;10.40;;
31514;SDS011;40526;52.088;17.020;2024-01-30T08:42:11;21.17;;;11.85;;
31514;SDS011;40526;52.088;17.020;2024-01-30T08:47:13;22.13;;;9.55;;
31514;SDS011;40526;52.088;17.020;2024-01-30T08:52:16;16.88;;;9.45;;
31514;SDS011;40526;52.088;17.020;2024-01-30T08:57:20;18.95;;;9.82;;
31514;SDS011;40526;52.088;17.020;2024-01-30T09:02:22;15.90;;;9.68;;
31514;SDS011;40526;52.088;17.020;2024-01-30T09:07:24;17.83;;;9.18;;
31514;SDS011;40526;52.088;17.020;2024-01-30T09:12:27;16.77;;;9.30;;
31514;SDS011;40526;52.088;17.020;2024-01-30T09:17:29;18.52;;;9.73;;
31514;SDS011;40526;52.088;17.020;2024-01-30T09:22:31;14.38;;;9.20;;
31514;SDS011;40526;52.088;17.020;2024-01-30T09:27:35;20.65;;;9.43;;
31514;SDS011;40526;52.088;17.020;2024-01-30T09:32:37;18.92;;;8.30;;
31514;SDS011;40526;52.088;17.020;2024-01-30T09:37:40;21.85;;;9.95;;
31514;SDS011;40526;52.088;17.020;2024-01-30T09:42:44;19.50;;;9.57;;
31514;SDS011;40526;52.088;17.020;2024-01-30T09:47:49;17.10;;;9.15;;
31514;SDS011;40526;52.088;17.020;2024-01-30T09:52:50;19.77;;;9.43;;
31514;SDS011;40526;52.088;17.020;2024-01-30T09:57:54;19.92;;;9.48;;
31514;SDS011;40526;52.088;17.020;2024-01-30T10:02:56;15.48;;;8.95;;
31514;SDS011;40526;52.088;17.020;2024-01-30T10:07:58;22.42;;;10.88;;
31514;SDS011;40526;52.088;17.020;2024-01-30T10:13:02;16.20;;;9.50;;
31514;SDS011;40526;52.088;17.020;2024-01-30T10:18:04;21.30;;;9.65;;
31514;SDS011;40526;52.088;17.020;2024-01-30T10:23:07;17.55;;;9.40;;
31514;SDS011;40526;52.088;17.020;2024-01-30T10:28:11;16.10;;;8.88;;
31514;SDS011;40526;52.088;17.020;2024-01-30T10:33:14;17.63;;;9.27;;
31514;SDS011;40526;52.088;17.020;2024-01-30T10:38:16;23.73;;;10.68;;
31514;SDS011;40526;52.088;17.020;2024-01-30T10:43:22;18.73;;;9.52;;
31514;SDS011;40526;52.088;17.020;2024-01-30T10:48:31;20.60;;;10.40;;
31514;SDS011;40526;52.088;17.020;2024-01-30T10:53:40;18.98;;;9.65;;
31514;SDS011;40526;52.088;17.020;2024-01-30T10:58:46;20.60;;;9.95;;
31514;SDS011;40526;52.088;17.020;2024-01-30T11:03:49;17.40;;;9.77;;
31514;SDS011;40526;52.088;17.020;2024-01-30T11:09:01;17.33;;;9.43;;
31514;SDS011;40526;52.088;17.020;2024-01-30T11:14:10;20.08;;;10.57;;
31514;SDS011;40526;52.088;17.020;2024-01-30T11:19:12;19.08;;;11.32;;
31514;SDS011;40526;52.088;17.020;2024-01-30T11:24:14;19.17;;;11.05;;
31514;SDS011;40526;52.088;17.020;2024-01-30T11:29:18;18.25;;;11.25;;
31514;SDS011;40526;52.088;17.020;2024-01-30T11:34:20;22.83;;;11.35;;
31514;SDS011;40526;52.088;17.020;2024-01-30T11:39:23;20.40;;;10.65;;
31514;SDS011;40526;52.088;17.020;2024-01-30T11:44:27;22.98;;;11.35;;
31514;SDS011;40526;52.088;17.020;2024-01-30T11:49:29;21.17;;;10.95;;
31514;SDS011;40526;52.088;17.020;2024-01-30T11:54:31;21.70;;;10.50;;
31514;SDS011;40526;52.088;17.020;2024-01-30T11:59:36;21.92;;;10.73;;
31514;SDS011;40526;52.088;17.020;2024-01-30T12:04:38;20.48;;;10.48;;
31514;SDS011;40526;52.088;17.020;2024-01-30T12:09:40;20.48;;;10.32;;
31514;SDS011;40526;52.088;17.020;2024-01-30T12:14:43;20.38;;;11.13;;
31514;SDS011;40526;52.088;17.020;2024-01-30T12:19:46;20.67;;;11.07;;
31514;SDS011;40526;52.088;17.020;2024-01-30T12:24:48;20.05;;;10.73;;
31514;SDS011;40526;52.088;17.020;2024-01-30T12:29:56;24.35;;;10.68;;
31514;SDS011;40526;52.088;17.020;2024-01-30T12:34:59;22.20;;;10.85;;
31514;SDS011;40526;52.088;17.020;2024-01-30T12:45:04;22.90;;;11.27;;
31514;SDS011;40526;52.088;17.020;2024-01-30T12:50:07;22.75;;;11.27;;
31514;SDS011;40526;52.088;17.020;2024-01-30T12:55:10;23.52;;;12.43;;
31514;SDS011;40526;52.088;17.020;2024-01-30T13:00:14;24.45;;;11.52;;
31514;SDS011;40526;52.088;17.020;2024-01-30T13:05:17;26.08;;;12.18;;
31514;SDS011;40526;52.088;17.020;2024-01-30T13:10:19;23.23;;;12.13;;
31514;SDS011;40526;52.088;17.020;2024-01-30T13:15:23;22.05;;;12.25;;
31514;SDS011;40526;52.088;17.020;2024-01-30T13:20:25;23.63;;;12.80;;
31514;SDS011;40526;52.088;17.020;2024-01-30T13:25:27;20.50;;;11.85;;
31514;SDS011;40526;52.088;17.020;2024-01-30T13:30:30;22.27;;;12.25;;
31514;SDS011;40526;52.088;17.020;2024-01-30T13:35:32;19.50;;;11.68;;
31514;SDS011;40526;52.088;17.020;2024-01-30T13:40:35;21.58;;;10.27;;
31514;SDS011;40526;52.088;17.020;2024-01-30T13:45:38;22.85;;;10.98;;
31514;SDS011;40526;52.088;17.020;2024-01-30T13:50:42;23.52;;;12.95;;
31514;SDS011;40526;52.088;17.020;2024-01-30T13:55:44;22.33;;;11.85;;
31514;SDS011;40526;52.088;17.020;2024-01-30T14:05:49;15.70;;;8.73;;
31514;SDS011;40526;52.088;17.020;2024-01-30T14:10:51;16.60;;;8.48;;
31514;SDS011;40526;52.088;17.020;2024-01-30T14:15:55;12.63;;;8.20;;
31514;SDS011;40526;52.088;17.020;2024-01-30T14:20:57;18.08;;;9.52;;
31514;SDS011;40526;52.088;17.020;2024-01-30T14:25:59;14.23;;;8.88;;
31514;SDS011;40526;52.088;17.020;2024-01-30T14:31:03;17.08;;;9.90;;
31514;SDS011;40526;52.088;17.020;2024-01-30T14:36:05;18.10;;;9.25;;
31514;SDS011;40526;52.088;17.020;2024-01-30T14:41:08;21.25;;;10.75;;
31514;SDS011;40526;52.088;17.020;2024-01-30T14:46:11;22.17;;;10.13;;
31514;SDS011;40526;52.088;17.020;2024-01-30T14:51:13;23.95;;;11.38;;
31514;SDS011;40526;52.088;17.020;2024-01-30T14:56:15;20.65;;;10.60;;
31514;SDS011;40526;52.088;17.020;2024-01-30T15:01:19;18.23;;;10.43;;
31514;SDS011;40526;52.088;17.020;2024-01-30T15:06:21;20.92;;;10.75;;
31514;SDS011;40526;52.088;17.020;2024-01-30T15:11:25;21.67;;;10.60;;
31514;SDS011;40526;52.088;17.020;2024-01-30T15:16:28;19.95;;;10.63;;
31514;SDS011;40526;52.088;17.020;2024-01-30T15:21:31;19.17;;;10.57;;
31514;SDS011;40526;52.088;17.020;2024-01-30T15:26:33;19.50;;;11.10;;
31514;SDS011;40526;52.088;17.020;2024-01-30T15:31:37;20.35;;;11.57;;
31514;SDS011;40526;52.088;17.020;2024-01-30T15:36:39;22.50;;;10.98;;
31514;SDS011;40526;52.088;17.020;2024-01-30T15:41:42;19.88;;;10.93;;
31514;SDS011;40526;52.088;17.020;2024-01-30T15:46:45;21.92;;;12.93;;
31514;SDS011;40526;52.088;17.020;2024-01-30T15:51:47;25.70;;;13.05;;
31514;SDS011;40526;52.088;17.020;2024-01-30T15:56:49;36.40;;;19.20;;
31514;SDS011;40526;52.088;17.020;2024-01-30T16:01:53;44.60;;;21.80;;
31514;SDS011;40526;52.088;17.020;2024-01-30T16:06:55;31.50;;;16.63;;
31514;SDS011;40526;52.088;17.020;2024-01-30T16:11:57;62.15;;;26.92;;
31514;SDS011;40526;52.088;17.020;2024-01-30T16:17:00;45.42;;;24.23;;
31514;SDS011;40526;52.088;17.020;2024-01-30T16:22:02;39.85;;;22.90;;
31514;SDS011;40526;52.088;17.020;2024-01-30T16:27:04;82.70;;;47.25;;
31514;SDS011;40526;52.088;17.020;2024-01-30T16:32:08;72.03;;;39.65;;
31514;SDS011;40526;52.088;17.020;2024-01-30T16:37:10;40.88;;;22.38;;
31514;SDS011;40526;52.088;17.020;2024-01-30T16:42:12;37.65;;;20.30;;
31514;SDS011;40526;52.088;17.020;2024-01-30T16:47:16;171.27;;;71.72;;
31514;SDS011;40526;52.088;17.020;2024-01-30T16:52:18;153.13;;;66.88;;
31514;SDS011;40526;52.088;17.020;2024-01-30T16:57:22;115.80;;;56.25;;
31514;SDS011;40526;52.088;17.020;2024-01-30T17:02:25;87.68;;;41.58;;
31514;SDS011;40526;52.088;17.020;2024-01-30T17:07:27;51.65;;;29.02;;
31514;SDS011;40526;52.088;17.020;2024-01-30T17:12:34;65.20;;;34.70;;
31514;SDS011;40526;52.088;17.020;2024-01-30T17:17:37;148.93;;;63.20;;
31514;SDS011;40526;52.088;17.020;2024-01-30T17:22:39;103.47;;;51.28;;
31514;SDS011;40526;52.088;17.020;2024-01-30T17:27:41;84.65;;;46.40;;
31514;SDS011;40526;52.088;17.020;2024-01-30T17:32:46;49.95;;;27.25;;
31514;SDS011;40526;52.088;17.020;2024-01-30T17:37:48;50.75;;;24.65;;
31514;SDS011;40526;52.088;17.020;2024-01-30T17:42:50;64.25;;;30.33;;
31514;SDS011;40526;52.088;17.020;2024-01-30T17:47:54;42.65;;;20.63;;
31514;SDS011;40526;52.088;17.020;2024-01-30T17:52:56;44.25;;;22.08;;
31514;SDS011;40526;52.088;17.020;2024-01-30T17:57:59;44.05;;;21.25;;
31514;SDS011;40526;52.088;17.020;2024-01-30T18:03:04;44.97;;;20.15;;
31514;SDS011;40526;52.088;17.020;2024-01-30T18:08:06;34.30;;;16.27;;
31514;SDS011;40526;52.088;17.020;2024-01-30T18:13:08;37.05;;;17.73;;
31514;SDS011;40526;52.088;17.020;2024-01-30T18:18:14;42.92;;;19.67;;
31514;SDS011;40526;52.088;17.020;2024-01-30T18:23:17;34.75;;;16.08;;
31514;SDS011;40526;52.088;17.020;2024-01-30T18:28:21;28.00;;;14.68;;
31514;SDS011;40526;52.088;17.020;2024-01-30T18:33:24;26.40;;;15.25;;
31514;SDS011;40526;52.088;17.020;2024-01-30T18:38:26;30.17;;;15.60;;
31514;SDS011;40526;52.088;17.020;2024-01-30T18:43:29;32.72;;;14.85;;
31514;SDS011;40526;52.088;17.020;2024-01-30T18:48:33;31.00;;;14.27;;
31514;SDS011;40526;52.088;17.020;2024-01-30T18:53:37;30.73;;;14.50;;
31514;SDS011;40526;52.088;17.020;2024-01-30T18:58:39;26.83;;;13.52;;
31514;SDS011;40526;52.088;17.020;2024-01-30T19:03:42;28.83;;;12.68;;
31514;SDS011;40526;52.088;17.020;2024-01-30T19:08:44;27.05;;;13.93;;
31514;SDS011;40526;52.088;17.020;2024-01-30T19:13:46;28.60;;;12.35;;
31514;SDS011;40526;52.088;17.020;2024-01-30T19:18:50;25.45;;;12.90;;
31514;SDS011;40526;52.088;17.020;2024-01-30T19:23:52;30.98;;;15.05;;
31514;SDS011;40526;52.088;17.020;2024-01-30T19:28:59;29.27;;;15.57;;
31514;SDS011;40526;52.088;17.020;2024-01-30T19:34:02;21.92;;;12.63;;
31514;SDS011;40526;52.088;17.020;2024-01-30T19:39:04;24.00;;;14.07;;
31514;SDS011;40526;52.088;17.020;2024-01-30T19:44:11;31.35;;;15.85;;
31514;SDS011;40526;52.088;17.020;2024-01-30T19:49:15;37.85;;;17.10;;
31514;SDS011;40526;52.088;17.020;2024-01-30T19:54:17;34.80;;;16.38;;
31514;SDS011;40526;52.088;17.020;2024-01-30T19:59:22;29.83;;;15.48;;
31514;SDS011;40526;52.088;17.020;2024-01-30T20:04:26;36.67;;;17.23;;
31514;SDS011;40526;52.088;17.020;2024-01-30T20:09:28;34.45;;;16.88;;
31514;SDS011;40526;52.088;17.020;2024-01-30T20:14:30;29.08;;;15.20;;
31514;SDS011;40526;52.088;17.020;2024-01-30T20:19:33;28.83;;;15.27;;
31514;SDS011;40526;52.088;17.020;2024-01-30T20:24:35;37.38;;;15.40;;
31514;SDS011;40526;52.088;17.020;2024-01-30T20:29:37;25.27;;;14.10;;
31514;SDS011;40526;52.088;17.020;2024-01-30T20:34:41;35.42;;;15.68;;
31514;SDS011;40526;52.088;17.020;2024-01-30T20:39:43;31.80;;;16.05;;
31514;SDS011;40526;52.088;17.020;2024-01-30T20:44:45;35.50;;;17.02;;
31514;SDS011;40526;52.088;17.020;2024-01-30T20:49:48;32.22;;;18.15;;
31514;SDS011;40526;52.088;17.020;2024-01-30T20:54:51;39.13;;;19.40;;
31514;SDS011;40526;52.088;17.020;2024-01-30T20:59:53;37.50;;;18.70;;
31514;SDS011;40526;52.088;17.020;2024-01-30T21:04:56;39.20;;;19.80;;
31514;SDS011;40526;52.088;17.020;2024-01-30T21:09:58;37.25;;;18.65;;
31514;SDS011;40526;52.088;17.020;2024-01-30T21:15:01;41.70;;;19.23;;
31514;SDS011;40526;52.088;17.020;2024-01-30T21:20:06;40.92;;;19.58;;
31514;SDS011;40526;52.088;17.020;2024-01-30T21:25:09;48.45;;;21.52;;
31514;SDS011;40526;52.088;17.020;2024-01-30T21:30:11;48.63;;;20.25;;
31514;SDS011;40526;52.088;17.020;2024-01-30T21:35:15;39.92;;;19.20;;
31514;SDS011;40526;52.088;17.020;2024-01-30T21:40:17;40.45;;;19.33;;
31514;SDS011;40526;52.088;17.020;2024-01-30T21:45:19;40.03;;;18.90;;
31514;SDS011;40526;52.088;17.020;2024-01-30T21:50:24;42.53;;;19.08;;
31514;SDS011;40526;52.088;17.020;2024-01-30T21:55:26;39.33;;;18.70;;
31514;SDS011;40526;52.088;17.020;2024-01-30T22:00:28;61.53;;;25.08;;
31514;SDS011;40526;52.088;17.020;2024-01-30T22:05:32;32.83;;;18.67;;
31514;SDS011;40526;52.088;17.020;2024-01-30T22:10:34;35.95;;;15.75;;
31514;SDS011;40526;52.088;17.020;2024-01-30T22:15:36;31.83;;;16.40;;
31514;SDS011;40526;52.088;17.020;2024-01-30T22:20:40;31.35;;;15.88;;
31514;SDS011;40526;52.088;17.020;2024-01-30T22:25:42;27.83;;;15.95;;
31514;SDS011;40526;52.088;17.020;2024-01-30T22:30:44;29.80;;;15.90;;
31514;SDS011;40526;52.088;17.020;2024-01-30T22:35:47;25.33;;;14.95;;
31514;SDS011;40526;52.088;17.020;2024-01-30T22:40:49;29.55;;;15.38;;
31514;SDS011;40526;52.088;17.020;2024-01-30T22:45:51;30.38;;;16.85;;
31514;SDS011;40526;52.088;17.020;2024-01-30T22:50:54;34.95;;;16.42;;
31514;SDS011;40526;52.088;17.020;2024-01-30T22:55:56;29.38;;;15.15;;
31514;SDS011;40526;52.088;17.020;2024-01-30T23:00:59;29.90;;;15.00;;
31514;SDS011;40526;52.088;17.020;2024-01-30T23:06:02;30.80;;;15.85;;
31514;SDS011;40526;52.088;17.020;2024-01-30T23:11:04;34.60;;;17.30;;
31514;SDS011;40526;52.088;17.020;2024-01-30T23:16:06;30.95;;;16.05;;
31514;SDS011;40526;52.088;17.020;2024-01-30T23:21:10;34.00;;;16.40;;
31514;SDS011;40526;52.088;17.020;2024-01-30T23:26:11;29.20;;;16.08;;
31514;SDS011;40526;52.088;17.020;2024-01-30T23:31:13;33.10;;;17.58;;
31514;SDS011;40526;52.088;17.020;2024-01-30T23:36:17;37.55;;;17.95;;
31514;SDS011;40526;52.088;17.020;2024-01-30T23:41:19;33.65;;;17.05;;
31514;SDS011;40526;52.088;17.020;2024-01-30T23:46:20;32.80;;;17.30;;
31514;SDS011;40526;52.088;17.020;2024-01-30T23:51:25;30.27;;;16.00;;
31514;SDS011;40526;52.088;17.020;2024-01-30T23:56:27;30.33;;;15.65;;
